カンザスシティ の空港の天気 - METARとTAF

カンザスシティ国際空港 ( KMCI / MCI ) - アメリカ ミズーリ州カンザスシティ
飛行場実況気象(Metar)
観測時間10/25 17:53 CDT (10/25 22:53 UTC)
風向・風速北 6m/s
視程10km以上
天気現象
全天を覆う雲 雲底高度 400m
気温3.9℃
湿度82%
気圧1021.5hPa
METARKMCI 252253Z 36012KT 10SM OVC013 04/01 A3015 RMK AO2 SLP215 T00390011 $
過去の天気等 Google飛行場航空写真 Wunderground天気予報

過去48時間のMETAR

飛行場予報(TAF)
発表時間: 10/25 12:51 CDT (10/25 17:51 UTC)
予報対象時間: 25日13時 CDT ~ 26日13時 CDT
風向・風速北東 5m/s
視程8050m
天気現象弱い霧雨
全天の8割程度の雲 雲底高度 300m
全天を覆う雲 雲底高度 610m
26日1時 CDT から
風向・風速北北東 6m/s
視程8050m
天気現象弱いしゅう雨 もや
全天を覆う雲 雲底高度 300m
26日4時 CDT から
風向・風速北 6m/s
視程4830m
天気現象弱い雨雪 もや
全天を覆う雲 雲底高度 300m
26日8時 CDT から
風向・風速北 5m/s
視程3220m
天気現象弱い雪 もや
全天を覆う雲 雲底高度 180m
KMCI 251751Z 2518/2618 04009KT 5SM -DZ BKN010 OVC020
FM260600 02012KT 5SM -SHRA BR OVC010
FM260900 01012KT 3SM -RASN BR OVC010
FM261300 36010KT 2SM -SN BR OVC006